North Providence, Rhode Island
Current Conditions -  °F | °C
As of 10:15 PM on Wednesday 22 Oct 2014 (Local Time) from KSFZ Reporting Station
Overcast Overcast  
Wind Chill: 52°   Ceiling: 800
Heat Index: 52°   Visibility: 8mi
Dew Point: 43°   Wind: 15mph
Humidity: 71%   Direction: 20°NNE
Pressure: 29.77"   Gusts: 26mph
Location:  41.86°N, 71.48°W
Report Text: KSFZ 230215Z 02013G23KT 8SM BKN008 OVC014 11/06 A2977 RMK AO1 LTG DSNT NE P0005
Loading
Personal Weather Stations






























Interactive Weather Map
Tropical Storm Tracking
New forecast layout! Learn more

10-Day Weather Forecast

Advertisements
Track Severe Weather on mobile